Time;durP1;ratioP1;P1;durP2;ratioP2;P2;SDS_P1;SDS_P2;PMS_P1;PMS_P2;Temp;Humidity;BMP_temperature;BMP_pressure;BME280_temperature;BME280_humidity;BME280_pressure;Samples;Min_cycle;Max_cycle;Signal;HPM_P1;HPM_P2
2023/04/29 00:00:11;;;;;;;5.10;4.70;;;13.80;99.90;;;;;;5054485;28;20044;-44
2023/04/29 00:02:37;;;;;;;5.60;5.00;;;13.70;99.90;;;;;;5054707;28;20067;-49
2023/04/29 00:05:03;;;;;;;6.70;5.07;;;13.70;99.90;;;;;;5054240;28;20087;-44
2023/04/29 00:07:32;;;;;;;6.95;5.18;;;13.70;99.90;;;;;;5054563;28;20492;-46
2023/04/29 00:09:58;;;;;;;6.90;6.18;;;13.70;99.90;;;;;;5033273;28;20404;-47
2023/04/29 00:12:24;;;;;;;6.57;5.97;;;13.60;99.90;;;;;;5068225;28;20024;-44
2023/04/29 00:14:49;;;;;;;6.85;6.03;;;13.50;99.90;;;;;;5074854;28;20025;-46
2023/04/29 00:17:16;;;;;;;8.00;6.13;;;13.50;99.90;;;;;;5073279;28;20396;-47
2023/04/29 00:19:42;;;;;;;6.53;5.80;;;13.40;99.90;;;;;;5074162;28;20030;-44
2023/04/29 00:22:08;;;;;;;65.03;43.38;;;13.40;99.90;;;;;;5062565;22;20144;-40
2023/04/29 00:24:33;;;;;;;47.70;33.47;;;13.40;99.90;;;;;;5034792;28;20052;-39
2023/04/29 00:27:01;;;;;;;8.45;7.65;;;13.30;99.90;;;;;;5034375;28;20056;-41
2023/04/29 00:29:27;;;;;;;11.98;6.18;;;13.30;99.90;;;;;;5034437;28;20504;-40
2023/04/29 00:31:52;;;;;;;8.25;6.03;;;13.40;99.90;;;;;;5033757;28;20030;-43
2023/04/29 00:34:18;;;;;;;6.85;6.15;;;13.30;99.90;;;;;;5034485;28;20091;-43
2023/04/29 00:36:43;;;;;;;16.10;5.55;;;13.30;99.90;;;;;;5034149;28;20026;-41
2023/04/29 00:39:09;;;;;;;14.57;4.90;;;13.30;99.90;;;;;;5034410;28;20022;-45
2023/04/29 00:41:34;;;;;;;5.38;4.88;;;13.30;99.90;;;;;;5034769;28;20040;-46
2023/04/29 00:44:00;;;;;;;6.63;5.00;;;13.30;99.90;;;;;;5034274;28;20072;-42
2023/04/29 00:46:26;;;;;;;5.85;5.35;;;13.40;99.90;;;;;;5034609;28;20493;-41
2023/04/29 00:48:51;;;;;;;5.60;5.10;;;13.40;99.90;;;;;;5034539;28;20053;-40
2023/04/29 00:51:17;;;;;;;5.35;4.55;;;13.40;99.90;;;;;;5035246;28;20080;-41
2023/04/29 00:53:43;;;;;;;4.10;3.83;;;13.40;99.90;;;;;;5036508;28;20032;-45
2023/04/29 00:56:09;;;;;;;4.07;3.78;;;13.40;99.90;;;;;;5034350;28;20083;-44
2023/04/29 00:58:35;;;;;;;6.00;4.03;;;13.40;99.90;;;;;;5033928;28;20116;-44
2023/04/29 01:01:02;;;;;;;4.32;4.03;;;13.40;99.90;;;;;;5033557;28;20094;-43
2023/04/29 01:03:29;;;;;;;5.15;4.60;;;13.40;99.90;;;;;;5033806;28;20026;-42
2023/04/29 01:06:20;;;;;;;4.50;4.20;;;13.40;99.90;;;;;;5015865;28;20029;-47
2023/04/29 01:09:01;;;;;;;6.78;4.38;;;13.40;99.90;;;;;;5033946;28;20028;-46
2023/04/29 01:11:36;;;;;;;5.43;4.30;;;13.40;99.90;;;;;;5033554;28;20020;-42
2023/04/29 01:14:03;;;;;;;4.75;3.95;;;13.40;99.90;;;;;;5033434;28;20028;-44
2023/04/29 01:16:50;;;;;;;4.72;4.07;;;13.30;99.90;;;;;;5033046;28;20033;-41
2023/04/29 01:19:37;;;;;;;4.63;4.22;;;13.30;99.90;;;;;;5032997;28;20518;-47
2023/04/29 01:22:02;;;;;;;5.47;4.35;;;13.30;99.90;;;;;;5032791;28;20025;-47
2023/04/29 01:24:28;;;;;;;4.65;4.28;;;13.30;99.90;;;;;;5032921;28;20048;-46
2023/04/29 01:27:04;;;;;;;4.00;3.70;;;13.30;99.90;;;;;;5032559;28;20034;-37
2023/04/29 01:29:50;;;;;;;5.60;4.20;;;13.20;99.90;;;;;;5014965;28;20022;-44
2023/04/29 01:32:25;;;;;;;4.15;3.88;;;13.30;99.90;;;;;;5032931;28;20037;-39
2023/04/29 01:35:10;;;;;;;4.30;3.90;;;13.30;99.90;;;;;;5032920;28;20516;-42
2023/04/29 01:38:10;;;;;;;4.85;4.07;;;13.20;99.90;;;;;;5032789;28;20033;-45
2023/04/29 01:41:00;;;;;;;5.63;3.80;;;13.20;99.90;;;;;;5032547;28;20048;-43
2023/04/29 01:46:52;;;;;;;3.45;3.25;;;13.10;99.90;;;;;;5031549;28;20028;-43
2023/04/29 01:49:25;;;;;;;4.65;4.25;;;13.10;99.90;;;;;;5032376;28;20075;-42
2023/04/29 01:51:51;;;;;;;3.65;3.35;;;13.10;99.90;;;;;;5014612;28;20017;-43
2023/04/29 01:54:16;;;;;;;4.03;3.72;;;13.10;99.90;;;;;;5032385;28;20098;-42
2023/04/29 01:56:42;;;;;;;3.55;3.35;;;13.00;99.90;;;;;;5014399;28;20025;-42
2023/04/29 01:59:08;;;;;;;3.80;3.50;;;13.00;99.90;;;;;;5032162;28;20073;-42
2023/04/29 02:01:33;;;;;;;8.48;3.50;;;13.00;99.90;;;;;;5014130;28;20044;-42
2023/04/29 02:03:59;;;;;;;3.50;3.20;;;12.90;99.90;;;;;;5032090;28;20029;-45
2023/04/29 02:06:25;;;;;;;3.75;3.45;;;12.90;99.90;;;;;;5032019;28;20556;-39
2023/04/29 02:08:51;;;;;;;4.68;2.92;;;12.80;99.90;;;;;;5031954;28;20029;-42
2023/04/29 02:11:16;;;;;;;3.92;3.42;;;12.80;99.90;;;;;;5031848;28;20485;-40
2023/04/29 02:13:42;;;;;;;4.88;3.10;;;12.80;99.90;;;;;;5031815;28;20025;-40
2023/04/29 02:16:13;;;;;;;3.08;2.88;;;12.80;99.90;;;;;;5031599;28;20037;-42
2023/04/29 02:18:39;;;;;;;4.85;3.38;;;12.70;99.90;;;;;;5031713;28;20034;-38
2023/04/29 02:21:05;;;;;;;3.85;3.38;;;12.70;99.90;;;;;;5031541;28;20550;-40
2023/04/29 02:23:31;;;;;;;7.03;3.40;;;12.60;99.90;;;;;;5031588;28;20025;-41
2023/04/29 02:25:56;;;;;;;4.00;2.80;;;12.60;99.90;;;;;;5031431;28;20017;-40
2023/04/29 02:28:22;;;;;;;3.72;3.42;;;12.50;99.90;;;;;;5031606;28;20030;-42
2023/04/29 02:30:48;;;;;;;3.67;3.38;;;12.50;99.90;;;;;;5031505;28;20022;-43
2023/04/29 02:33:14;;;;;;;4.00;3.00;;;12.50;99.90;;;;;;5031595;28;20117;-43
2023/04/29 02:35:39;;;;;;;3.20;3.00;;;12.50;99.90;;;;;;5031523;28;20049;-40
2023/04/29 02:38:05;;;;;;;3.42;3.22;;;12.50;99.90;;;;;;5031737;28;20026;-41
2023/04/29 02:40:30;;;;;;;5.70;3.60;;;12.50;99.90;;;;;;5032373;28;20017;-45
2023/04/29 02:42:56;;;;;;;3.75;3.45;;;12.50;99.90;;;;;;5031995;28;20025;-40
2023/04/29 02:45:22;;;;;;;5.82;3.85;;;12.40;99.90;;;;;;5031790;28;20021;-41
2023/04/29 02:47:48;;;;;;;4.65;3.53;;;12.50;99.90;;;;;;5031755;28;20049;-41
2023/04/29 02:50:14;;;;;;;5.03;3.38;;;12.50;99.90;;;;;;5031606;28;20041;-42
2023/04/29 02:52:40;;;;;;;7.30;3.20;;;12.50;99.90;;;;;;5031999;28;20508;-41
2023/04/29 02:55:06;;;;;;;5.38;3.00;;;12.40;99.90;;;;;;5031251;28;20021;-43
2023/04/29 02:57:32;;;;;;;3.60;3.28;;;12.50;99.90;;;;;;5031982;28;20084;-41
2023/04/29 02:59:58;;;;;;;3.55;3.22;;;12.50;99.90;;;;;;5031495;28;20477;-41
2023/04/29 03:02:24;;;;;;;3.47;3.17;;;12.50;99.90;;;;;;5031630;28;20022;-45
2023/04/29 03:04:49;;;;;;;2.85;2.65;;;12.40;99.90;;;;;;5031604;28;20021;-44
2023/04/29 03:07:16;;;;;;;2.40;2.20;;;12.40;99.90;;;;;;5031244;28;20048;-38
2023/04/29 03:09:42;;;;;;;2.75;2.55;;;12.40;99.90;;;;;;5031435;28;20024;-41
2023/04/29 03:12:07;;;;;;;2.58;2.38;;;12.40;99.90;;;;;;5031639;28;20229;-43
2023/04/29 03:14:33;;;;;;;2.92;2.28;;;12.40;99.90;;;;;;5031483;28;20026;-41
2023/04/29 03:16:58;;;;;;;3.13;2.40;;;12.40;99.90;;;;;;5031153;28;20044;-45
2023/04/29 03:19:24;;;;;;;2.65;2.22;;;12.40;99.90;;;;;;5031295;28;20108;-47
2023/04/29 03:21:49;;;;;;;2.28;2.17;;;12.50;99.90;;;;;;5031006;28;20599;-40
2023/04/29 03:24:15;;;;;;;2.20;2.10;;;12.50;99.90;;;;;;5013620;28;20017;-40
2023/04/29 03:26:41;;;;;;;2.17;1.90;;;12.50;99.90;;;;;;5030898;28;20097;-43
2023/04/29 03:29:07;;;;;;;2.10;2.00;;;12.50;99.90;;;;;;5032030;28;20029;-41
2023/04/29 03:31:33;;;;;;;2.42;2.28;;;12.40;99.90;;;;;;5013229;28;20030;-41
2023/04/29 03:33:58;;;;;;;2.33;2.13;;;12.40;99.90;;;;;;5031249;28;20064;-45
2023/04/29 03:36:24;;;;;;;2.22;2.05;;;12.50;99.90;;;;;;5030993;28;20029;-40
2023/04/29 03:38:49;;;;;;;1.92;1.83;;;12.50;99.90;;;;;;5031402;28;20068;-40
2023/04/29 03:41:15;;;;;;;2.55;1.95;;;12.40;99.90;;;;;;5031356;28;20022;-40
2023/04/29 03:43:43;;;;;;;2.20;2.08;;;12.40;99.90;;;;;;5031268;28;20029;-44
2023/04/29 03:46:09;;;;;;;3.00;2.00;;;12.40;99.90;;;;;;5032163;28;20022;-41
2023/04/29 03:48:35;;;;;;;3.45;1.92;;;12.40;99.90;;;;;;5032182;28;20029;-41
2023/04/29 03:51:01;;;;;;;1.70;1.60;;;12.40;99.90;;;;;;5033365;28;20029;-43
2023/04/29 03:53:26;;;;;;;1.92;1.83;;;12.40;99.90;;;;;;5031686;28;20261;-41
2023/04/29 03:55:52;;;;;;;2.28;2.08;;;12.40;99.90;;;;;;5031381;28;20377;-41
2023/04/29 03:58:17;;;;;;;3.22;1.83;;;12.30;99.90;;;;;;5031118;28;20040;-40
2023/04/29 04:00:43;;;;;;;1.70;1.60;;;12.40;99.90;;;;;;5030878;28;20017;-41
2023/04/29 04:03:08;;;;;;;3.78;2.00;;;12.40;99.90;;;;;;5031168;28;20109;-40
2023/04/29 04:05:34;;;;;;;2.05;1.67;;;12.40;99.90;;;;;;5030847;28;20148;-40
2023/04/29 04:08:00;;;;;;;2.28;2.08;;;12.30;99.90;;;;;;5033103;28;20108;-46
2023/04/29 04:10:27;;;;;;;2.42;2.17;;;12.30;99.90;;;;;;5017322;28;20025;-42
2023/04/29 04:12:52;;;;;;;2.20;2.10;;;12.30;99.90;;;;;;5017332;28;20025;-41
2023/04/29 04:15:18;;;;;;;5.63;2.13;;;12.30;99.90;;;;;;5035003;28;20025;-39
2023/04/29 04:17:43;;;;;;;3.17;2.70;;;12.30;99.90;;;;;;5035004;28;20314;-42
2023/04/29 04:20:09;;;;;;;2.22;2.13;;;12.30;99.90;;;;;;5034608;28;20021;-41
2023/04/29 04:22:35;;;;;;;2.70;2.50;;;12.20;99.90;;;;;;5017403;28;20029;-42
2023/04/29 04:25:00;;;;;;;4.35;2.50;;;12.20;99.90;;;;;;5034716;28;20124;-41
2023/04/29 04:27:26;;;;;;;3.70;2.90;;;12.20;99.90;;;;;;5034757;28;20112;-43
2023/04/29 04:29:55;;;;;;;4.35;4.05;;;12.20;99.90;;;;;;5034603;28;20481;-40
2023/04/29 04:32:22;;;;;;;6.35;4.53;;;12.20;99.90;;;;;;5016855;28;20030;-41
2023/04/29 04:34:48;;;;;;;5.25;4.82;;;12.20;99.90;;;;;;5035039;28;20096;-46
2023/04/29 04:37:13;;;;;;;8.35;5.55;;;12.20;99.90;;;;;;5034350;28;20029;-41
2023/04/29 04:39:39;;;;;;;7.30;6.53;;;12.30;99.90;;;;;;5016686;28;20504;-44
2023/04/29 04:42:05;;;;;;;11.32;6.70;;;12.30;99.90;;;;;;5016690;28;20411;-42
2023/04/29 04:44:31;;;;;;;6.93;6.22;;;12.30;99.90;;;;;;5016590;28;20014;-42
2023/04/29 04:46:57;;;;;;;10.50;7.65;;;12.40;99.90;;;;;;5034136;28;20416;-42
2023/04/29 04:49:24;;;;;;;8.57;7.43;;;12.40;99.90;;;;;;5034026;28;20481;-44
2023/04/29 04:51:50;;;;;;;10.45;8.20;;;12.50;99.90;;;;;;5016127;28;20440;-42
2023/04/29 04:54:16;;;;;;;9.43;8.13;;;12.60;99.90;;;;;;5033963;28;20097;-44
2023/04/29 04:56:41;;;;;;;8.75;7.95;;;12.50;99.90;;;;;;5034001;28;20119;-43
2023/04/29 04:59:07;;;;;;;9.55;8.55;;;12.60;99.90;;;;;;5033828;28;20503;-43
2023/04/29 05:01:33;;;;;;;11.73;8.95;;;12.60;99.90;;;;;;5033938;28;20028;-42
2023/04/29 05:03:59;;;;;;;9.63;8.43;;;12.70;99.90;;;;;;5033718;28;20436;-41
2023/04/29 05:06:25;;;;;;;12.50;8.90;;;12.70;99.90;;;;;;5016041;28;20030;-45
2023/04/29 05:08:51;;;;;;;21.02;10.25;;;12.80;99.90;;;;;;5016363;28;20029;-41
2023/04/29 05:11:17;;;;;;;12.73;10.60;;;12.80;99.90;;;;;;5033700;28;20099;-44
2023/04/29 05:13:43;;;;;;;10.85;9.48;;;12.90;99.90;;;;;;5034213;28;20029;-43
2023/04/29 05:16:09;;;;;;;10.57;9.48;;;12.90;99.90;;;;;;5016522;28;20026;-43
2023/04/29 05:18:34;;;;;;;12.35;10.25;;;13.00;99.90;;;;;;5033825;28;20040;-44
2023/04/29 05:21:00;;;;;;;11.23;9.73;;;13.00;99.90;;;;;;5033564;28;20034;-43
2023/04/29 05:23:26;;;;;;;10.93;9.82;;;13.00;99.90;;;;;;5033653;28;20017;-41
2023/04/29 05:25:52;;;;;;;10.98;9.15;;;13.10;99.90;;;;;;5014698;28;20033;-38
2023/04/29 05:28:18;;;;;;;13.02;9.35;;;13.10;99.90;;;;;;5033146;28;20401;-39
2023/04/29 05:30:43;;;;;;;11.65;8.77;;;13.20;99.90;;;;;;5032653;28;20087;-43
2023/04/29 05:33:10;;;;;;;9.80;7.80;;;13.20;99.90;;;;;;5015063;28;20120;-43
2023/04/29 05:35:36;;;;;;;10.70;8.52;;;13.30;99.90;;;;;;5032537;28;20396;-45
2023/04/29 05:38:01;;;;;;;9.13;8.23;;;13.30;99.90;;;;;;5032755;28;20031;-44
2023/04/29 05:40:27;;;;;;;9.02;8.00;;;13.40;99.90;;;;;;5032603;28;20055;-42
2023/04/29 05:42:52;;;;;;;11.73;10.55;;;13.40;99.90;;;;;;5032836;28;20091;-45
2023/04/29 05:45:18;;;;;;;11.00;9.85;;;13.40;99.90;;;;;;5014688;28;20057;-38
2023/04/29 05:47:43;;;;;;;11.70;9.65;;;13.40;99.90;;;;;;5032387;28;20087;-41
2023/04/29 05:50:10;;;;;;;12.60;10.45;;;13.50;99.90;;;;;;5032351;28;20088;-41
2023/04/29 05:52:36;;;;;;;12.98;10.25;;;13.50;99.90;;;;;;5032543;28;20559;-46
2023/04/29 05:55:01;;;;;;;12.13;10.77;;;13.50;99.90;;;;;;5032106;28;20029;-41
2023/04/29 05:57:27;;;;;;;12.63;11.30;;;13.60;99.90;;;;;;5032152;28;20053;-43
2023/04/29 05:59:54;;;;;;;12.27;10.25;;;13.80;99.90;;;;;;5032279;28;20512;-39
2023/04/29 06:02:19;;;;;;;19.35;10.15;;;14.20;99.90;;;;;;5032152;28;20018;-43
2023/04/29 06:04:46;;;;;;;11.10;9.95;;;14.60;99.90;;;;;;5032332;28;20389;-41
2023/04/29 06:07:12;;;;;;;10.27;8.73;;;15.00;99.90;;;;;;5032138;28;20452;-44
2023/04/29 06:09:38;;;;;;;13.57;9.82;;;15.30;99.90;;;;;;5032202;28;20025;-41
2023/04/29 06:12:04;;;;;;;14.50;10.95;;;15.20;99.90;;;;;;5032138;28;20069;-40
2023/04/29 06:14:29;;;;;;;15.50;11.52;;;15.30;99.90;;;;;;5032131;28;20021;-42
2023/04/29 06:16:55;;;;;;;11.60;10.15;;;15.40;99.90;;;;;;5031864;28;20515;-41
2023/04/29 06:19:20;;;;;;;10.23;8.50;;;15.40;99.90;;;;;;5031977;28;20032;-46
2023/04/29 06:21:46;;;;;;;12.05;7.97;;;15.30;99.90;;;;;;5032091;28;20560;-43
2023/04/29 06:24:11;;;;;;;12.30;8.32;;;15.10;99.90;;;;;;5031705;28;20503;-46
2023/04/29 06:26:37;;;;;;;10.82;9.07;;;15.00;99.90;;;;;;5031345;28;20025;-43
2023/04/29 06:29:03;;;;;;;9.50;8.52;;;14.90;99.90;;;;;;5031923;28;20018;-43
2023/04/29 06:31:28;;;;;;;10.07;7.63;;;14.70;99.90;;;;;;5031396;28;20485;-44
2023/04/29 06:33:53;;;;;;;11.68;8.38;;;14.50;99.90;;;;;;5014213;28;20060;-39
2023/04/29 06:36:19;;;;;;;10.07;8.32;;;14.40;99.90;;;;;;5031940;28;20021;-45
2023/04/29 06:38:45;;;;;;;9.43;7.93;;;14.30;99.90;;;;;;5031936;28;20037;-46
2023/04/29 06:41:10;;;;;;;8.95;7.00;;;14.30;99.90;;;;;;5014223;28;20109;-47
2023/04/29 06:43:36;;;;;;;13.32;7.05;;;14.20;99.90;;;;;;5032171;28;20032;-44
2023/04/29 06:46:02;;;;;;;6.65;6.00;;;14.10;99.90;;;;;;5033037;28;20021;-48
2023/04/29 06:48:27;;;;;;;7.65;6.20;;;14.10;99.90;;;;;;5033487;28;20036;-47
2023/04/29 06:50:55;;;;;;;6.80;5.85;;;14.00;99.90;;;;;;5033510;28;20029;-41
2023/04/29 06:53:21;;;;;;;10.65;6.90;;;14.00;99.90;;;;;;5032253;28;20503;-46
2023/04/29 06:55:47;;;;;;;7.45;6.20;;;14.10;99.90;;;;;;5031619;28;20029;-45
2023/04/29 06:58:13;;;;;;;7.85;5.47;;;14.10;99.90;;;;;;5031601;28;20121;-43
2023/04/29 07:00:39;;;;;;;5.60;4.88;;;13.90;99.90;;;;;;5031166;28;20478;-46
2023/04/29 07:03:05;;;;;;;7.22;4.90;;;13.70;99.90;;;;;;5031499;28;20112;-44
2023/04/29 07:05:30;;;;;;;8.75;4.65;;;13.80;99.90;;;;;;5031413;28;20116;-45
2023/04/29 07:07:56;;;;;;;6.35;4.90;;;13.90;99.90;;;;;;5031938;28;20041;-44
2023/04/29 07:10:22;;;;;;;4.88;4.18;;;14.20;99.90;;;;;;5031884;28;20087;-42
2023/04/29 07:12:47;;;;;;;5.72;5.15;;;14.30;99.90;;;;;;5031926;28;20029;-46
2023/04/29 07:15:13;;;;;;;5.53;4.47;;;14.50;99.90;;;;;;5031873;28;20029;-44
2023/04/29 07:17:38;;;;;;;6.18;4.80;;;14.60;99.90;;;;;;5031520;28;20512;-45
2023/04/29 07:20:04;;;;;;;6.35;4.95;;;14.80;99.90;;;;;;5031526;28;20052;-43
2023/04/29 07:22:30;;;;;;;6.63;4.70;;;14.90;99.90;;;;;;5031426;28;20033;-44
2023/04/29 07:24:56;;;;;;;6.57;5.03;;;15.10;99.90;;;;;;5031490;28;20022;-43
2023/04/29 07:27:22;;;;;;;8.10;5.40;;;15.30;99.90;;;;;;5013499;28;20405;-45
2023/04/29 07:29:47;;;;;;;6.03;5.03;;;15.30;99.90;;;;;;5031326;28;20026;-48
2023/04/29 07:32:13;;;;;;;9.45;5.55;;;15.30;99.90;;;;;;5031424;28;20131;-46
2023/04/29 07:34:39;;;;;;;6.65;5.90;;;15.30;99.90;;;;;;5031494;28;20032;-48
2023/04/29 07:37:04;;;;;;;6.63;5.32;;;15.30;99.90;;;;;;5031513;28;20428;-43
2023/04/29 07:39:30;;;;;;;6.20;4.90;;;15.30;99.90;;;;;;5031541;28;20025;-47
2023/04/29 07:41:56;;;;;;;7.90;4.90;;;15.30;99.90;;;;;;5031687;28;20018;-46
2023/04/29 07:44:22;;;;;;;8.23;5.30;;;15.30;99.90;;;;;;5035024;28;20025;-44
2023/04/29 07:46:47;;;;;;;9.50;5.30;;;15.30;99.90;;;;;;5034991;28;20021;-44
2023/04/29 07:49:13;;;;;;;6.03;5.40;;;15.30;99.90;;;;;;5035182;28;20033;-47
2023/04/29 07:51:42;;;;;;;5.90;5.30;;;15.10;99.90;;;;;;5035368;28;20072;-43
2023/04/29 07:54:08;;;;;;;7.05;5.55;;;15.20;99.90;;;;;;5035161;28;20021;-47
2023/04/29 07:56:34;;;;;;;5.85;5.20;;;15.10;99.90;;;;;;5035178;28;20057;-44
2023/04/29 07:59:00;;;;;;;6.80;6.10;;;15.10;99.90;;;;;;5034909;28;20057;-44
2023/04/29 08:01:27;;;;;;;5.93;5.35;;;15.10;99.90;;;;;;5034695;28;20021;-43
2023/04/29 08:03:52;;;;;;;5.63;4.93;;;15.10;99.90;;;;;;5034809;28;20508;-43
2023/04/29 08:06:20;;;;;;;6.20;5.22;;;15.10;99.90;;;;;;5034769;28;20021;-43
2023/04/29 08:08:46;;;;;;;6.68;5.30;;;15.10;99.90;;;;;;5035054;28;20032;-43
2023/04/29 08:11:19;;;;;;;6.85;5.25;;;15.10;99.90;;;;;;5035116;28;20033;-43
2023/04/29 08:13:45;;;;;;;6.57;5.13;;;15.10;99.90;;;;;;5034761;28;20337;-43
2023/04/29 08:16:12;;;;;;;6.43;5.30;;;15.10;99.90;;;;;;5034629;28;20022;-43
2023/04/29 08:18:37;;;;;;;8.68;5.63;;;15.00;99.90;;;;;;5034582;28;20029;-47
2023/04/29 08:21:03;;;;;;;8.85;5.95;;;15.10;99.90;;;;;;5034433;28;20123;-46
2023/04/29 08:23:28;;;;;;;6.88;5.88;;;15.20;99.90;;;;;;5035269;28;20021;-45
2023/04/29 08:25:55;;;;;;;7.22;5.53;;;15.30;99.90;;;;;;5034765;28;20052;-44
2023/04/29 08:28:21;;;;;;;6.57;5.88;;;15.40;99.90;;;;;;5034453;28;20025;-48
2023/04/29 08:30:47;;;;;;;8.80;6.68;;;15.40;99.90;;;;;;5034668;28;20401;-44
2023/04/29 08:33:13;;;;;;;6.85;5.45;;;15.40;99.90;;;;;;5034479;28;20021;-44
2023/04/29 08:35:39;;;;;;;8.52;5.93;;;15.40;99.90;;;;;;5034008;28;20489;-44
2023/04/29 08:38:05;;;;;;;7.55;5.78;;;15.30;99.90;;;;;;5034231;28;20461;-43
2023/04/29 08:40:40;;;;;;;6.50;5.63;;;15.30;99.90;;;;;;5034171;28;20087;-45
2023/04/29 08:43:08;;;;;;;8.52;6.55;;;15.40;99.90;;;;;;5034003;28;20069;-45
2023/04/29 08:45:35;;;;;;;7.53;6.35;;;15.30;99.90;;;;;;5034219;28;20030;-46
2023/04/29 08:48:02;;;;;;;9.93;6.88;;;15.20;99.90;;;;;;5033923;28;20026;-47
2023/04/29 08:50:30;;;;;;;9.07;8.15;;;15.10;99.90;;;;;;5033806;28;20022;-47
2023/04/29 08:52:55;;;;;;;9.10;7.40;;;15.00;99.90;;;;;;5033454;28;20111;-44
2023/04/29 08:55:21;;;;;;;10.90;7.72;;;14.80;99.90;;;;;;5033923;28;20029;-43
2023/04/29 08:57:49;;;;;;;11.02;7.15;;;14.80;99.90;;;;;;5034075;28;20153;-51
2023/04/29 09:00:14;;;;;;;10.55;7.57;;;14.70;99.90;;;;;;5033599;28;20104;-40
2023/04/29 09:02:44;;;;;;;9.07;7.88;;;14.60;99.90;;;;;;5049309;28;20524;-41
2023/04/29 09:05:10;;;;;;;10.35;7.03;;;14.40;99.90;;;;;;5047040;28;20023;-40
2023/04/29 09:07:38;;;;;;;9.95;7.55;;;14.40;99.90;;;;;;5060145;28;20065;-49
2023/04/29 09:10:04;;;;;;;8.52;6.20;;;14.40;99.90;;;;;;5073741;28;20035;-43
2023/04/29 09:12:30;;;;;;;8.32;6.97;;;14.40;99.90;;;;;;5073479;28;20024;-42
2023/04/29 09:14:56;;;;;;;10.52;6.72;;;14.40;99.90;;;;;;5073400;28;20043;-41
2023/04/29 09:17:47;;;;;;;8.18;6.63;;;14.30;99.90;;;;;;5064541;28;20112;-42
2023/04/29 09:20:19;;;;;;;8.27;7.18;;;14.30;99.90;;;;;;5063491;28;20029;-45
2023/04/29 09:23:02;;;;;;;9.82;7.68;;;14.30;99.90;;;;;;5073225;28;20028;-47
2023/04/29 09:25:28;;;;;;;9.98;8.02;;;14.40;99.90;;;;;;5059811;28;20025;-43
2023/04/29 09:27:55;;;;;;;7.32;6.35;;;14.30;99.90;;;;;;5069121;28;20109;-39
2023/04/29 09:30:21;;;;;;;9.52;7.85;;;14.30;99.90;;;;;;5052848;28;20024;-43
2023/04/29 09:33:05;;;;;;;8.95;7.93;;;14.40;99.90;;;;;;5052967;28;20025;-45
2023/04/29 09:35:30;;;;;;;8.85;7.35;;;14.40;99.90;;;;;;5052695;28;20029;-44
2023/04/29 09:38:15;;;;;;;14.57;7.78;;;14.30;99.90;;;;;;5052879;28;20029;-44
2023/04/29 09:40:42;;;;;;;13.20;7.07;;;14.30;99.90;;;;;;5052830;28;20033;-45
2023/04/29 09:43:17;;;;;;;8.63;6.22;;;14.20;99.90;;;;;;5060292;28;20024;-41
2023/04/29 09:45:46;;;;;;;8.93;6.53;;;14.30;99.90;;;;;;5073790;28;20365;-44
2023/04/29 09:48:12;;;;;;;6.97;5.95;;;14.30;99.90;;;;;;5056447;28;20071;-44
2023/04/29 09:50:38;;;;;;;7.78;6.47;;;14.10;99.90;;;;;;5051376;28;20506;-44
2023/04/29 09:53:09;;;;;;;7.07;5.93;;;14.10;99.90;;;;;;5065855;28;20043;-47
2023/04/29 09:55:36;;;;;;;6.68;5.28;;;14.10;99.90;;;;;;5058969;28;20028;-45
2023/04/29 09:58:02;;;;;;;8.40;5.40;;;14.20;99.90;;;;;;5072789;28;20050;-43
2023/04/29 10:00:32;;;;;;;6.85;5.82;;;14.20;99.90;;;;;;5072354;28;20023;-43
2023/04/29 10:03:00;;;;;;;11.45;6.65;;;14.10;99.90;;;;;;5071976;28;20021;-42
2023/04/29 10:05:30;;;;;;;7.85;6.15;;;14.10;99.90;;;;;;5053942;28;20012;-45
2023/04/29 10:07:58;;;;;;;8.05;6.35;;;14.00;99.90;;;;;;5055906;28;20388;-43
2023/04/29 10:10:26;;;;;;;9.02;7.32;;;13.90;99.90;;;;;;5072287;28;20029;-44
2023/04/29 10:12:53;;;;;;;9.95;6.45;;;13.90;99.90;;;;;;5065973;28;20037;-43
2023/04/29 10:15:49;;;;;;;10.85;7.18;;;13.90;99.90;;;;;;5052259;28;20048;-44
2023/04/29 10:18:20;;;;;;;8.93;6.07;;;13.90;99.90;;;;;;5050514;28;20040;-43
2023/04/29 10:20:47;;;;;;;43.85;28.58;;;14.00;99.90;;;;;;5052409;28;20236;-43
2023/04/29 10:23:14;;;;;;;29.77;21.63;;;13.80;99.90;;;;;;5051049;28;20441;-41
2023/04/29 10:25:41;;;;;;;9.18;7.22;;;13.80;99.90;;;;;;5055474;28;20020;-43
2023/04/29 10:28:15;;;;;;;6.47;5.78;;;13.70;99.90;;;;;;5055350;28;20108;-42
2023/04/29 10:30:44;;;;;;;7.07;6.35;;;13.80;99.90;;;;;;5053847;28;20025;-41
2023/04/29 10:33:11;;;;;;;6.60;5.50;;;13.70;99.90;;;;;;5053580;28;20033;-45
2023/04/29 10:35:37;;;;;;;6.60;5.53;;;13.80;99.90;;;;;;5052390;28;20032;-44
2023/04/29 10:38:13;;;;;;;6.40;5.32;;;13.70;99.90;;;;;;5049022;28;20024;-44
2023/04/29 10:40:47;;;;;;;7.15;5.80;;;13.80;99.90;;;;;;5049364;28;20050;-45
2023/04/29 10:43:14;;;;;;;8.38;5.38;;;13.80;99.90;;;;;;5051746;28;20104;-45
2023/04/29 10:45:40;;;;;;;5.45;4.95;;;13.80;99.90;;;;;;5050796;28;20020;-44
2023/04/29 10:48:13;;;;;;;4.93;4.47;;;13.90;99.90;;;;;;5051211;28;20103;-42
2023/04/29 10:50:47;;;;;;;5.55;4.93;;;13.90;99.90;;;;;;5051223;28;20485;-42
2023/04/29 10:53:22;;;;;;;6.78;4.88;;;14.00;99.90;;;;;;5051132;28;20041;-44
2023/04/29 10:55:53;;;;;;;5.25;4.10;;;14.00;99.90;;;;;;5051349;28;20037;-44
2023/04/29 10:58:41;;;;;;;6.20;4.90;;;14.00;99.90;;;;;;5033635;28;20450;-43
2023/04/29 11:01:09;;;;;;;4.57;4.07;;;14.00;99.90;;;;;;5051292;28;20029;-45
2023/04/29 11:03:59;;;;;;;6.75;4.63;;;14.00;99.90;;;;;;5051994;28;20099;-41
2023/04/29 11:06:46;;;;;;;7.00;4.93;;;14.00;99.90;;;;;;5051334;28;20039;-44
2023/04/29 11:09:19;;;;;;;6.75;4.35;;;14.00;99.90;;;;;;5051146;28;20079;-43
2023/04/29 11:11:52;;;;;;;5.43;4.68;;;14.00;99.90;;;;;;5051108;28;20025;-44
2023/04/29 11:14:25;;;;;;;5.93;5.00;;;13.80;99.90;;;;;;5051543;28;20054;-42
2023/04/29 11:16:53;;;;;;;5.82;4.93;;;13.70;99.90;;;;;;5051096;28;20115;-42
2023/04/29 11:19:19;;;;;;;4.28;3.88;;;13.60;99.90;;;;;;5060744;28;20025;-47
2023/04/29 11:21:46;;;;;;;5.50;4.85;;;13.60;99.90;;;;;;5070630;28;20503;-43
2023/04/29 11:24:14;;;;;;;5.60;4.88;;;13.70;99.90;;;;;;5054329;28;20031;-43
2023/04/29 11:26:40;;;;;;;7.15;4.63;;;13.70;99.90;;;;;;5049972;28;20036;-42
2023/04/29 11:29:10;;;;;;;7.53;4.30;;;13.70;99.90;;;;;;5051006;28;20092;-45
2023/04/29 11:31:38;;;;;;;5.07;4.57;;;13.60;99.90;;;;;;5066653;28;20021;-44
2023/04/29 11:34:04;;;;;;;5.90;4.82;;;13.70;99.90;;;;;;5053410;28;20033;-45
2023/04/29 11:36:33;;;;;;;5.72;5.22;;;13.80;99.90;;;;;;5050731;28;20027;-43
2023/04/29 11:39:00;;;;;;;6.82;4.32;;;14.60;99.90;;;;;;5058025;28;20108;-44
2023/04/29 11:41:26;;;;;;;4.20;3.80;;;13.90;99.90;;;;;;5054982;28;20079;-46
2023/04/29 11:43:57;;;;;;;5.15;4.65;;;14.00;99.90;;;;;;5052161;28;20044;-45
2023/04/29 11:46:22;;;;;;;4.75;4.25;;;14.20;99.90;;;;;;5033545;28;20021;-47
2023/04/29 11:48:49;;;;;;;53.35;36.30;;;14.30;99.90;;;;;;5034174;28;20507;-44
2023/04/29 11:51:16;;;;;;;6.80;6.07;;;14.50;99.90;;;;;;5032090;28;20029;-45
2023/04/29 11:53:42;;;;;;;35.90;25.55;;;14.70;99.90;;;;;;5051095;28;20025;-45
2023/04/29 11:56:09;;;;;;;6.85;5.78;;;14.80;99.90;;;;;;5053105;28;20028;-44
2023/04/29 11:58:35;;;;;;;3.95;3.65;;;15.10;99.90;;;;;;5052965;28;20027;-45
2023/04/29 12:01:03;;;;;;;3.97;3.58;;;15.40;99.90;;;;;;5051069;28;20021;-43
2023/04/29 12:03:30;;;;;;;4.20;3.90;;;15.60;99.90;;;;;;5051254;28;20052;-44
2023/04/29 12:05:56;;;;;;;3.22;3.03;;;15.70;99.90;;;;;;5057120;28;20027;-44
2023/04/29 12:08:26;;;;;;;4.47;3.58;;;15.80;99.90;;;;;;5070769;28;20024;-43
2023/04/29 12:10:54;;;;;;;3.95;3.60;;;15.80;99.90;;;;;;5063266;28;20519;-48
2023/04/29 12:13:23;;;;;;;4.25;3.88;;;15.70;99.90;;;;;;5058716;28;20029;-44
2023/04/29 12:15:50;;;;;;;2.85;2.65;;;15.80;99.90;;;;;;5032824;28;20345;-42
2023/04/29 12:18:17;;;;;;;3.17;2.92;;;15.90;99.90;;;;;;5032488;28;20086;-43
2023/04/29 12:20:44;;;;;;;2.85;2.60;;;16.00;99.90;;;;;;5072067;22;20088;-48
2023/04/29 12:23:12;;;;;;;2.45;2.25;;;16.10;99.90;;;;;;5063502;28;20033;-51
2023/04/29 12:25:40;;;;;;;2.40;2.20;;;16.10;99.90;;;;;;5066909;28;20544;-52
2023/04/29 12:28:10;;;;;;;2.30;2.10;;;16.30;99.90;;;;;;5051347;28;20029;-52
2023/04/29 12:30:36;;;;;;;2.47;2.30;;;15.90;99.90;;;;;;5054048;28;20021;-49
2023/04/29 12:33:02;;;;;;;4.05;3.28;;;15.80;99.90;;;;;;5054290;28;20381;-48
2023/04/29 12:35:27;;;;;;;3.35;2.72;;;15.90;99.90;;;;;;5052938;28;20021;-47
2023/04/29 12:37:53;;;;;;;3.75;3.30;;;16.10;99.90;;;;;;5015756;28;20034;-50
2023/04/29 12:40:19;;;;;;;3.58;3.30;;;16.20;99.90;;;;;;5033756;28;20029;-48
2023/04/29 12:42:45;;;;;;;7.47;3.65;;;16.50;99.90;;;;;;5033959;28;20101;-53
2023/04/29 12:45:31;;;;;;;3.50;3.20;;;16.60;99.90;;;;;;5034124;28;20045;-49
2023/04/29 12:47:57;;;;;;;;;;;16.70;99.90;;;;;;5034934;28;20029;-48
2023/04/29 12:50:33;;;;;;;3.20;2.90;;;16.60;99.90;;;;;;5033729;28;20395;-46